createdAt,value
2019-01-27T00:00:38.975Z,12.47
2019-01-27T00:03:06.311Z,11.53
2019-01-27T00:05:33.648Z,11.30
2019-01-27T00:08:00.927Z,13.03
2019-01-27T00:10:28.153Z,13.67
2019-01-27T00:12:55.464Z,12.50
2019-01-27T00:15:23.354Z,12.53
2019-01-27T00:17:50.589Z,11.40
2019-01-27T00:20:18.037Z,11.30
2019-01-27T00:22:45.309Z,12.13
2019-01-27T00:25:12.556Z,12.17
2019-01-27T00:27:39.783Z,13.13
2019-01-27T00:30:12.717Z,11.87
2019-01-27T00:32:39.927Z,11.70
2019-01-27T00:35:07.287Z,12.27
2019-01-27T00:37:34.507Z,12.43
2019-01-27T00:40:01.738Z,11.67
2019-01-27T00:42:29.255Z,9.53
2019-01-27T00:44:56.447Z,10.50
2019-01-27T00:47:23.716Z,10.87
2019-01-27T00:49:50.982Z,10.70
2019-01-27T00:52:18.209Z,9.37
2019-01-27T00:54:45.431Z,10.80
2019-01-27T00:57:12.675Z,10.13
2019-01-27T00:59:40.051Z,11.00
2019-01-27T01:02:07.480Z,10.90
2019-01-27T01:04:34.703Z,9.73
2019-01-27T01:07:01.991Z,9.53
2019-01-27T01:09:29.198Z,10.80
2019-01-27T01:11:56.452Z,9.53
2019-01-27T01:14:23.692Z,10.40
2019-01-27T01:16:50.903Z,10.10
2019-01-27T01:19:18.167Z,9.80
2019-01-27T01:21:45.395Z,9.67
2019-01-27T01:24:12.613Z,8.63
2019-01-27T01:26:39.903Z,9.43
2019-01-27T01:29:07.142Z,9.00
2019-01-27T01:31:34.366Z,8.67
2019-01-27T01:34:01.650Z,9.17
2019-01-27T01:36:28.915Z,8.73
2019-01-27T01:38:56.362Z,8.60
2019-01-27T01:41:23.668Z,8.63
2019-01-27T01:43:51.019Z,9.00
2019-01-27T01:46:18.242Z,9.13
2019-01-27T01:48:45.480Z,9.30
2019-01-27T01:51:12.768Z,7.50
2019-01-27T01:53:40.226Z,8.30
2019-01-27T01:56:07.440Z,8.00
2019-01-27T01:58:34.713Z,8.40
2019-01-27T02:01:02.237Z,7.00
2019-01-27T02:03:29.459Z,7.97
2019-01-27T02:05:56.728Z,8.37
2019-01-27T02:08:24.055Z,6.73
2019-01-27T02:10:51.304Z,7.70
2019-01-27T02:13:18.642Z,7.87
2019-01-27T02:16:03.231Z,8.20
2019-01-27T02:18:30.750Z,6.87
2019-01-27T02:20:58.204Z,7.87
2019-01-27T02:23:25.450Z,6.83
2019-01-27T02:25:52.689Z,7.97
2019-01-27T02:28:19.878Z,8.10
2019-01-27T02:30:47.126Z,8.90
2019-01-27T02:33:14.337Z,8.87
2019-01-27T02:35:41.616Z,7.80
2019-01-27T02:38:08.876Z,8.17
2019-01-27T02:40:36.203Z,6.43
2019-01-27T02:43:04.018Z,9.13
2019-01-27T02:45:31.288Z,9.20
2019-01-27T02:47:58.504Z,8.53
2019-01-27T02:50:28.045Z,9.70
2019-01-27T02:52:55.299Z,9.70
2019-01-27T02:55:22.527Z,8.10
2019-01-27T02:57:49.799Z,9.20
2019-01-27T03:00:17.237Z,9.03
2019-01-27T03:02:44.556Z,7.73
2019-01-27T03:05:47.280Z,9.57
2019-01-27T03:08:14.491Z,8.30
2019-01-27T03:10:41.695Z,8.73
2019-01-27T03:13:08.962Z,8.17
2019-01-27T03:15:36.185Z,8.43
2019-01-27T03:18:03.704Z,8.33
2019-01-27T03:20:30.956Z,8.37
2019-01-27T03:22:58.182Z,8.80
2019-01-27T03:25:25.409Z,8.60
2019-01-27T03:27:52.678Z,7.17
2019-01-27T03:30:19.928Z,8.40
2019-01-27T03:32:47.313Z,8.10
2019-01-27T03:35:14.815Z,8.17
2019-01-27T03:37:42.128Z,8.50
2019-01-27T03:40:10.127Z,7.73
2019-01-27T03:42:37.371Z,8.00
2019-01-27T03:45:04.857Z,9.03
2019-01-27T03:47:32.096Z,9.23
2019-01-27T03:49:59.346Z,9.00
2019-01-27T03:52:27.863Z,8.83
2019-01-27T03:54:55.102Z,8.20
2019-01-27T03:57:22.328Z,7.80
2019-01-27T03:59:49.531Z,7.13
2019-01-27T04:02:16.783Z,7.63
2019-01-27T04:04:44.021Z,8.40
2019-01-27T04:07:11.233Z,7.13
2019-01-27T04:09:38.487Z,8.07
2019-01-27T04:12:05.979Z,8.60
2019-01-27T04:14:33.671Z,8.23
2019-01-27T04:17:00.921Z,8.00
2019-01-27T04:19:28.153Z,7.37
2019-01-27T04:21:55.362Z,7.60
2019-01-27T04:24:22.597Z,8.37
2019-01-27T04:26:49.801Z,7.83
2019-01-27T04:29:17.030Z,7.70
2019-01-27T04:31:44.277Z,7.83
2019-01-27T04:34:11.485Z,6.67
2019-01-27T04:36:38.742Z,6.63
2019-01-27T04:39:08.860Z,8.10
2019-01-27T04:41:36.086Z,8.40
2019-01-27T04:44:03.544Z,8.00
2019-01-27T04:46:31.096Z,7.60
2019-01-27T04:48:58.327Z,7.33
2019-01-27T04:51:25.549Z,7.93
2019-01-27T04:53:52.845Z,8.20
2019-01-27T04:56:20.088Z,8.43
2019-01-27T04:58:47.310Z,6.47
2019-01-27T05:01:14.560Z,8.43
2019-01-27T05:03:49.747Z,8.63
2019-01-27T05:06:17.034Z,8.97
2019-01-27T05:08:44.259Z,7.93
2019-01-27T05:11:11.500Z,8.37
2019-01-27T05:13:38.755Z,8.17
2019-01-27T05:16:05.970Z,9.07
2019-01-27T05:18:33.203Z,9.63
2019-01-27T05:21:00.614Z,10.67
2019-01-27T05:23:27.883Z,8.77
2019-01-27T05:25:55.305Z,9.70
2019-01-27T05:28:22.553Z,9.17
2019-01-27T05:30:49.758Z,8.33
2019-01-27T05:33:16.964Z,9.50
2019-01-27T05:35:44.219Z,9.67
2019-01-27T05:38:11.526Z,10.43
2019-01-27T05:40:38.741Z,9.70
2019-01-27T05:43:05.999Z,9.73
2019-01-27T05:45:33.208Z,9.60
2019-01-27T05:48:00.420Z,9.23
2019-01-27T05:50:27.671Z,9.73
2019-01-27T05:52:54.907Z,9.63
2019-01-27T05:55:22.138Z,7.80
2019-01-27T05:57:49.491Z,9.57
2019-01-27T06:00:22.172Z,8.83
2019-01-27T06:02:49.481Z,8.17
2019-01-27T06:05:16.815Z,7.30
2019-01-27T06:07:44.235Z,8.10
2019-01-27T06:10:11.683Z,8.50
2019-01-27T06:12:39.016Z,8.20
2019-01-27T06:15:07.817Z,8.00
2019-01-27T06:17:35.055Z,8.93
2019-01-27T06:20:04.492Z,7.87
2019-01-27T06:22:31.787Z,7.57
2019-01-27T06:24:59.024Z,7.23
2019-01-27T06:27:26.253Z,7.40
2019-01-27T06:29:53.453Z,7.10
2019-01-27T06:32:46.463Z,6.80
2019-01-27T06:35:13.684Z,7.53
2019-01-27T06:37:40.964Z,7.30
2019-01-27T06:40:08.521Z,6.73
2019-01-27T06:42:35.775Z,7.63
2019-01-27T06:45:03.814Z,7.47
2019-01-27T06:47:31.118Z,6.47
2019-01-27T06:49:58.533Z,6.67
2019-01-27T06:52:25.734Z,5.93
2019-01-27T06:54:53.096Z,6.23
2019-01-27T06:57:20.375Z,6.47
2019-01-27T06:59:55.222Z,6.30
2019-01-27T07:02:36.490Z,5.97
2019-01-27T07:05:28.645Z,5.83
2019-01-27T07:08:04.208Z,6.57
2019-01-27T07:10:54.686Z,5.73
2019-01-27T07:13:40.152Z,6.30
2019-01-27T07:16:20.523Z,4.50
2019-01-27T07:19:06.399Z,5.93
2019-01-27T07:22:02.226Z,5.27
2019-01-27T07:27:36.348Z,5.10
2019-01-27T07:30:43.257Z,6.17
2019-01-27T07:33:28.793Z,6.20
2019-01-27T07:36:08.138Z,6.67
2019-01-27T07:38:43.784Z,6.27
2019-01-27T07:41:22.790Z,6.07
2019-01-27T07:44:10.942Z,7.17
2019-01-27T07:46:47.965Z,6.73
2019-01-27T07:49:26.215Z,7.27
2019-01-27T07:52:15.238Z,6.90
2019-01-27T07:55:07.791Z,7.13
2019-01-27T07:58:04.593Z,6.10
2019-01-27T08:00:45.175Z,6.67
2019-01-27T08:03:30.659Z,6.57
2019-01-27T08:06:26.706Z,5.97
2019-01-27T08:08:59.897Z,6.57
2019-01-27T08:11:49.747Z,6.27
2019-01-27T08:14:35.889Z,5.90
2019-01-27T08:17:20.468Z,6.77
2019-01-27T08:20:10.593Z,7.30
2019-01-27T08:23:00.531Z,6.50
2019-01-27T08:25:47.427Z,6.27
2019-01-27T08:28:35.892Z,6.53
2019-01-27T08:31:22.905Z,5.53
2019-01-27T08:34:01.966Z,5.80
2019-01-27T08:36:47.547Z,6.33
2019-01-27T08:39:34.417Z,6.97
2019-01-27T08:42:13.768Z,6.03
2019-01-27T08:44:53.119Z,4.37
2019-01-27T08:47:20.345Z,6.17
2019-01-27T08:49:47.713Z,4.93
2019-01-27T08:52:15.106Z,6.67
2019-01-27T08:54:44.423Z,5.40
2019-01-27T08:57:11.659Z,4.87
2019-01-27T08:59:38.950Z,6.07
2019-01-27T09:02:24.644Z,5.57
2019-01-27T09:05:15.675Z,4.70
2019-01-27T09:07:53.971Z,5.20
2019-01-27T09:10:43.695Z,5.97
2019-01-27T09:13:32.676Z,4.90
2019-01-27T09:16:37.592Z,4.93
2019-01-27T09:19:24.363Z,4.03
2019-01-27T09:22:23.009Z,4.57
2019-01-27T09:25:12.497Z,6.13
2019-01-27T09:27:58.146Z,6.30
2019-01-27T09:30:33.138Z,6.03
2019-01-27T09:33:06.853Z,6.20
2019-01-27T09:35:59.431Z,6.13
2019-01-27T09:38:41.230Z,5.80
2019-01-27T09:41:19.532Z,5.17
2019-01-27T09:43:54.174Z,4.00
2019-01-27T09:46:41.210Z,4.93
2019-01-27T09:49:28.999Z,4.60
2019-01-27T09:52:16.080Z,4.70
2019-01-27T09:55:11.973Z,4.90
2019-01-27T09:58:04.744Z,3.93
2019-01-27T10:00:48.920Z,4.33
2019-01-27T10:03:28.283Z,4.00
2019-01-27T10:06:15.063Z,4.80
2019-01-27T10:09:01.980Z,4.27
2019-01-27T10:11:53.391Z,3.83
2019-01-27T10:14:43.540Z,4.53
2019-01-27T10:17:30.544Z,4.83
2019-01-27T10:20:19.959Z,4.03
2019-01-27T10:23:05.183Z,5.67
2019-01-27T10:25:45.663Z,4.20
2019-01-27T10:28:30.898Z,4.70
2019-01-27T10:31:09.651Z,4.70
2019-01-27T10:33:57.545Z,5.00
2019-01-27T10:36:40.982Z,5.50
2019-01-27T10:39:27.041Z,4.47
2019-01-27T10:42:16.765Z,5.10
2019-01-27T10:44:54.062Z,4.80
2019-01-27T10:47:50.012Z,5.77
2019-01-27T10:50:32.076Z,5.03
2019-01-27T10:53:21.043Z,4.40
2019-01-27T10:56:16.235Z,4.37
2019-01-27T10:59:15.184Z,5.50
2019-01-27T11:02:02.150Z,4.53
2019-01-27T11:04:47.606Z,4.57
2019-01-27T11:07:32.948Z,4.73
2019-01-27T11:10:19.564Z,4.83
2019-01-27T11:13:04.281Z,4.97
2019-01-27T11:15:57.038Z,4.70
2019-01-27T11:18:43.848Z,5.43
2019-01-27T11:21:30.988Z,5.70
2019-01-27T11:24:06.140Z,5.67
2019-01-27T11:26:55.690Z,5.90
2019-01-27T11:29:31.772Z,5.53
2019-01-27T11:32:19.084Z,5.70
2019-01-27T11:34:59.863Z,5.93
2019-01-27T11:37:53.041Z,6.03
2019-01-27T11:40:39.828Z,6.63
2019-01-27T11:43:21.919Z,5.93
2019-01-27T11:46:05.284Z,6.60
2019-01-27T11:48:52.470Z,6.30
2019-01-27T11:51:26.844Z,7.23
2019-01-27T11:53:54.078Z,5.30
2019-01-27T11:56:21.419Z,6.43
2019-01-27T11:58:48.684Z,5.33
2019-01-27T12:01:15.907Z,5.73
2019-01-27T12:03:43.158Z,5.17
2019-01-27T12:06:10.442Z,4.53
2019-01-27T12:08:37.703Z,3.80
2019-01-27T12:11:05.151Z,1.97
2019-01-27T12:13:32.620Z,2.03
2019-01-27T12:15:59.878Z,2.23
2019-01-27T12:18:27.215Z,2.07
2019-01-27T12:20:54.456Z,2.10
2019-01-27T12:25:14.428Z,2.00
2019-01-27T12:27:41.686Z,2.67
2019-01-27T12:30:14.497Z,2.40
2019-01-27T12:32:41.719Z,2.60
2019-01-27T12:35:08.999Z,3.17
2019-01-27T12:37:36.241Z,2.57
2019-01-27T12:40:05.291Z,2.63
2019-01-27T12:42:32.722Z,7.93
2019-01-27T12:44:59.968Z,12.13
2019-01-27T12:49:33.821Z,3.67
2019-01-27T12:52:26.935Z,3.20
2019-01-27T12:54:54.567Z,2.93
2019-01-27T12:57:24.488Z,2.90
2019-01-27T12:59:51.740Z,2.80
2019-01-27T13:02:19.015Z,2.60
2019-01-27T13:04:46.308Z,2.87
2019-01-27T13:07:13.521Z,3.00
2019-01-27T13:09:40.725Z,2.73
2019-01-27T13:12:08.373Z,3.40
2019-01-27T13:14:35.585Z,2.57
2019-01-27T13:17:07.433Z,2.80
2019-01-27T13:19:31.972Z,3.10
2019-01-27T13:21:59.198Z,2.90
2019-01-27T13:24:26.425Z,3.30
2019-01-27T13:26:53.715Z,2.93
2019-01-27T13:29:20.932Z,2.90
2019-01-27T13:31:48.155Z,3.13
2019-01-27T13:34:15.423Z,2.87
2019-01-27T13:36:42.642Z,2.97
2019-01-27T13:39:09.874Z,3.30
2019-01-27T13:41:38.364Z,2.63
2019-01-27T13:44:05.614Z,2.87
2019-01-27T13:46:32.923Z,3.10
2019-01-27T13:49:00.290Z,2.60
2019-01-27T13:51:27.534Z,2.80
2019-01-27T13:53:54.749Z,3.13
2019-01-27T13:56:21.993Z,3.00
2019-01-27T13:58:52.108Z,2.87
2019-01-27T14:01:19.319Z,2.40
2019-01-27T14:03:46.551Z,3.60
2019-01-27T14:06:13.820Z,2.70
2019-01-27T14:08:41.026Z,2.67
2019-01-27T14:11:08.313Z,3.37
2019-01-27T14:13:35.525Z,2.73
2019-01-27T14:16:02.823Z,2.83
2019-01-27T14:18:30.071Z,2.13
2019-01-27T14:20:57.375Z,2.60
2019-01-27T14:23:24.596Z,2.40
2019-01-27T14:25:51.916Z,2.63
2019-01-27T14:28:19.228Z,2.80
2019-01-27T14:30:46.561Z,2.77
2019-01-27T14:33:13.836Z,2.83
2019-01-27T14:35:41.052Z,2.13
2019-01-27T14:38:08.356Z,2.10
2019-01-27T14:40:35.600Z,3.03
2019-01-27T14:43:03.215Z,2.57
2019-01-27T14:45:31.915Z,2.13
2019-01-27T14:47:59.268Z,3.00
2019-01-27T14:50:29.077Z,2.43
2019-01-27T14:52:56.344Z,2.40
2019-01-27T14:55:23.575Z,2.53
2019-01-27T14:57:50.798Z,2.03
2019-01-27T15:00:23.964Z,2.20
2019-01-27T15:02:51.173Z,2.77
2019-01-27T15:05:18.381Z,1.87
2019-01-27T15:07:45.853Z,2.60
2019-01-27T15:10:15.289Z,2.43
2019-01-27T15:12:42.552Z,2.17
2019-01-27T15:15:12.800Z,1.70
2019-01-27T15:17:40.053Z,1.77
2019-01-27T15:20:14.040Z,2.07
2019-01-27T15:22:41.313Z,2.33
2019-01-27T15:25:08.602Z,1.77
2019-01-27T15:27:35.822Z,1.80
2019-01-27T15:30:04.307Z,2.37
2019-01-27T15:32:31.536Z,2.57
2019-01-27T15:34:58.742Z,1.97
2019-01-27T15:37:26.028Z,2.53
2019-01-27T15:39:53.228Z,2.20
2019-01-27T15:42:20.852Z,2.60
2019-01-27T15:44:48.228Z,3.07
2019-01-27T15:47:15.441Z,3.30
2019-01-27T15:49:42.672Z,2.73
2019-01-27T15:52:09.924Z,3.10
2019-01-27T15:54:37.150Z,2.43
2019-01-27T15:57:04.414Z,1.70
2019-01-27T15:59:31.641Z,2.07
2019-01-27T16:01:58.870Z,1.60
2019-01-27T16:04:26.133Z,1.60
2019-01-27T16:06:53.347Z,2.40
2019-01-27T16:09:20.573Z,2.20
2019-01-27T16:11:48.040Z,2.20
2019-01-27T16:14:15.264Z,1.90
2019-01-27T16:16:42.505Z,2.10
2019-01-27T16:19:09.803Z,1.97
2019-01-27T16:21:37.024Z,2.10
2019-01-27T16:24:11.813Z,2.10
2019-01-27T16:26:39.067Z,2.20
2019-01-27T16:29:07.006Z,2.17
2019-01-27T16:31:56.694Z,1.70
2019-01-27T16:34:43.264Z,2.07
2019-01-27T16:37:10.546Z,2.20
2019-01-27T16:39:37.762Z,1.80
2019-01-27T16:42:05.457Z,1.80
2019-01-27T16:44:32.702Z,2.03
2019-01-27T16:46:59.911Z,3.17
2019-01-27T16:49:27.148Z,2.00
2019-01-27T16:51:54.414Z,2.40
2019-01-27T16:54:21.634Z,3.00
2019-01-27T16:56:48.988Z,3.20
2019-01-27T16:59:16.255Z,1.90
2019-01-27T17:01:43.460Z,2.00
2019-01-27T17:04:10.664Z,2.67
2019-01-27T17:06:37.934Z,1.90
2019-01-27T17:09:08.554Z,2.20
2019-01-27T17:11:35.991Z,2.00
2019-01-27T17:14:03.469Z,1.87
2019-01-27T17:16:30.849Z,2.03
2019-01-27T17:18:58.059Z,3.60
2019-01-27T17:21:25.297Z,4.07
2019-01-27T17:23:53.164Z,2.90
2019-01-27T17:26:20.364Z,3.63
2019-01-27T17:28:51.140Z,4.10
2019-01-27T17:31:18.422Z,5.33
2019-01-27T17:33:45.683Z,5.00
2019-01-27T17:36:12.886Z,5.90
2019-01-27T17:38:40.715Z,4.67
2019-01-27T17:41:07.980Z,8.50
2019-01-27T17:43:35.193Z,5.90
2019-01-27T17:46:02.835Z,7.27
2019-01-27T17:48:30.047Z,4.23
2019-01-27T17:50:57.262Z,2.90
2019-01-27T17:53:24.549Z,2.10
2019-01-27T17:55:51.753Z,4.70
2019-01-27T17:58:32.378Z,3.77
2019-01-27T18:01:31.051Z,2.37
2019-01-27T18:04:17.846Z,3.90
2019-01-27T18:07:07.639Z,4.53
2019-01-27T18:09:52.755Z,5.43
2019-01-27T18:12:27.450Z,3.07
2019-01-27T18:14:54.762Z,3.47
2019-01-27T18:17:22.005Z,5.13
2019-01-27T18:19:49.285Z,3.30
2019-01-27T18:22:16.496Z,3.77
2019-01-27T18:24:43.745Z,3.10
2019-01-27T18:27:11.091Z,2.90
2019-01-27T18:29:38.529Z,2.70
2019-01-27T18:32:05.751Z,6.50
2019-01-27T18:34:33.068Z,4.43
2019-01-27T18:37:00.291Z,3.10
2019-01-27T18:39:27.503Z,2.47
2019-01-27T18:41:54.784Z,4.70
2019-01-27T18:44:22.041Z,4.60
2019-01-27T18:46:49.305Z,4.93
2019-01-27T18:49:16.579Z,3.83
2019-01-27T18:51:43.765Z,3.90
2019-01-27T18:54:33.380Z,3.00
2019-01-27T18:57:10.178Z,3.47
2019-01-27T18:59:55.714Z,3.00
2019-01-27T19:02:45.062Z,2.10
2019-01-27T19:05:30.133Z,2.30
2019-01-27T19:08:16.923Z,2.77
2019-01-27T19:11:01.744Z,2.77
2019-01-27T19:13:45.153Z,2.10
2019-01-27T19:16:31.903Z,1.90
2019-01-27T19:19:17.077Z,2.07
2019-01-27T19:21:55.816Z,2.13
2019-01-27T19:24:45.624Z,2.00
2019-01-27T19:27:47.657Z,2.70
2019-01-27T19:30:35.913Z,2.20
2019-01-27T19:33:31.615Z,2.77
2019-01-27T19:36:33.300Z,2.70
2019-01-27T19:39:35.357Z,3.13
2019-01-27T19:42:08.855Z,3.17
2019-01-27T19:44:48.658Z,2.87
2019-01-27T19:47:28.347Z,3.23
2019-01-27T19:50:15.139Z,2.70
2019-01-27T19:52:55.000Z,2.60
2019-01-27T19:55:40.545Z,2.57
2019-01-27T19:58:32.963Z,5.50
2019-01-27T20:01:22.660Z,4.13
2019-01-27T20:04:13.931Z,2.60
2019-01-27T20:06:51.944Z,2.63
2019-01-27T20:09:41.285Z,2.67
2019-01-27T20:12:30.766Z,2.80
2019-01-27T20:15:10.308Z,2.60
2019-01-27T20:18:03.195Z,3.27
2019-01-27T20:21:08.015Z,2.80
2019-01-27T20:23:57.517Z,3.00
2019-01-27T20:26:35.488Z,3.70
2019-01-27T20:29:40.452Z,2.80
2019-01-27T20:32:26.862Z,2.50
2019-01-27T20:35:16.498Z,2.53
2019-01-27T20:38:04.675Z,2.67
2019-01-27T20:40:51.469Z,2.90
2019-01-27T20:43:40.945Z,2.73
2019-01-27T20:46:17.010Z,2.63
2019-01-27T20:48:54.884Z,2.30
2019-01-27T20:51:41.784Z,2.10
2019-01-27T20:54:28.699Z,2.80
2019-01-27T20:57:07.979Z,2.40
2019-01-27T20:59:44.973Z,2.67
2019-01-27T21:02:22.876Z,2.00
2019-01-27T21:05:13.017Z,2.63
2019-01-27T21:07:45.393Z,2.13
2019-01-27T21:10:44.772Z,2.03
2019-01-27T21:13:24.104Z,2.40
2019-01-27T21:16:09.009Z,2.10
2019-01-27T21:18:56.000Z,2.10
2019-01-27T21:21:23.284Z,2.40
2019-01-27T21:23:50.798Z,2.20
2019-01-27T21:26:18.079Z,2.40
2019-01-27T21:28:45.339Z,2.50
2019-01-27T21:31:15.678Z,1.77
2019-01-27T21:33:43.003Z,2.07
2019-01-27T21:36:10.625Z,2.43
2019-01-27T21:38:37.883Z,2.27
2019-01-27T21:41:05.138Z,1.90
2019-01-27T21:43:32.352Z,1.97
2019-01-27T21:45:59.563Z,1.93
2019-01-27T21:48:26.943Z,2.03
2019-01-27T21:50:54.215Z,1.93
2019-01-27T21:53:21.615Z,2.33
2019-01-27T21:55:48.924Z,2.30
2019-01-27T21:58:16.195Z,1.90
2019-01-27T22:00:43.413Z,1.93
2019-01-27T22:03:10.623Z,1.90
2019-01-27T22:05:37.975Z,2.33
2019-01-27T22:08:05.190Z,2.03
2019-01-27T22:10:32.388Z,1.90
2019-01-27T22:12:59.680Z,2.20
2019-01-27T22:15:26.893Z,2.33
2019-01-27T22:17:54.146Z,2.10
2019-01-27T22:20:21.353Z,2.10
2019-01-27T22:22:48.573Z,2.70
2019-01-27T22:25:15.935Z,2.80
2019-01-27T22:27:43.159Z,3.00
2019-01-27T22:30:13.523Z,2.77
2019-01-27T22:32:40.795Z,2.80
2019-01-27T22:35:08.103Z,2.97
2019-01-27T22:37:35.333Z,3.17
2019-01-27T22:40:03.605Z,2.80
2019-01-27T22:42:30.824Z,3.10
2019-01-27T22:44:58.061Z,2.90
2019-01-27T22:47:25.263Z,2.60
2019-01-27T22:49:52.471Z,2.23
2019-01-27T22:52:19.707Z,2.60
2019-01-27T22:54:46.985Z,2.87
2019-01-27T22:57:14.385Z,3.23
2019-01-27T22:59:41.601Z,2.43
2019-01-27T23:02:08.918Z,2.40
2019-01-27T23:04:36.161Z,2.23
2019-01-27T23:07:03.456Z,2.50
2019-01-27T23:09:30.668Z,2.37
2019-01-27T23:11:57.966Z,2.50
2019-01-27T23:14:25.183Z,2.60
2019-01-27T23:16:52.393Z,2.63
2019-01-27T23:19:19.635Z,2.87
2019-01-27T23:21:46.851Z,2.70
2019-01-27T23:24:14.092Z,3.33
2019-01-27T23:26:41.303Z,3.10
2019-01-27T23:29:08.507Z,3.30
2019-01-27T23:31:35.751Z,3.20
2019-01-27T23:34:03.176Z,3.17
2019-01-27T23:36:30.392Z,3.07
2019-01-27T23:38:57.644Z,3.10
2019-01-27T23:41:24.876Z,3.00
2019-01-27T23:43:52.094Z,2.90
2019-01-27T23:46:19.344Z,3.20
2019-01-27T23:48:46.567Z,3.33
2019-01-27T23:51:13.802Z,3.10
2019-01-27T23:53:41.066Z,3.17
2019-01-27T23:56:09.306Z,3.03
2019-01-27T23:58:36.519Z,2.60
